Time;durP1;ratioP1;P1;durP2;ratioP2;P2;SDS_P1;SDS_P2;PMS_P1;PMS_P2;Temp;Humidity;BMP_temperature;BMP_pressure;BME280_temperature;BME280_humidity;BME280_pressure;Samples;Min_cycle;Max_cycle;Signal;HPM_P1;HPM_P2
2023/08/12 00:00:21;;;;;;;9.65;4.10;;;20.00;99.90;;;;;;5116567;28;20044;-79
2023/08/12 00:02:46;;;;;;;9.15;3.70;;;20.00;99.90;;;;;;5098011;28;20505;-78
2023/08/12 00:05:13;;;;;;;9.95;4.20;;;20.00;99.90;;;;;;5098972;28;20036;-80
2023/08/12 00:07:41;;;;;;;11.17;4.60;;;20.00;99.90;;;;;;5115675;28;20043;-79
2023/08/12 00:10:08;;;;;;;8.48;3.30;;;19.90;99.90;;;;;;5102593;28;20369;-79
2023/08/12 00:12:38;;;;;;;11.10;4.32;;;19.90;99.90;;;;;;5104359;28;20075;-80
2023/08/12 00:15:06;;;;;;;10.00;3.47;;;19.90;99.90;;;;;;5105360;28;20036;-80
2023/08/12 00:17:32;;;;;;;9.05;3.67;;;19.90;99.90;;;;;;5121537;28;20040;-80
2023/08/12 00:19:58;;;;;;;11.52;3.95;;;19.90;99.90;;;;;;5126358;28;20075;-80
2023/08/12 00:22:24;;;;;;;8.13;3.70;;;19.90;99.90;;;;;;5108835;28;20091;-79
2023/08/12 00:24:51;;;;;;;8.15;3.55;;;19.90;99.90;;;;;;5111046;28;20515;-80
2023/08/12 00:27:17;;;;;;;7.07;3.20;;;19.90;99.90;;;;;;5108967;28;20055;-80
2023/08/12 00:29:43;;;;;;;8.70;3.92;;;19.90;99.90;;;;;;5106917;28;20036;-80
2023/08/12 00:32:09;;;;;;;6.05;2.90;;;19.90;99.90;;;;;;5123095;28;20075;-79
2023/08/12 00:34:35;;;;;;;7.22;3.10;;;19.90;99.90;;;;;;5086003;28;20528;-80
2023/08/12 00:37:01;;;;;;;11.60;4.10;;;19.90;99.90;;;;;;5117143;28;20088;-79
2023/08/12 00:39:27;;;;;;;7.97;3.13;;;19.90;99.90;;;;;;5110518;28;20040;-79
2023/08/12 00:41:52;;;;;;;8.95;3.17;;;19.90;99.90;;;;;;5079589;28;20539;-79
2023/08/12 00:44:18;;;;;;;6.45;2.80;;;19.90;99.90;;;;;;5111993;28;20048;-80
2023/08/12 00:46:44;;;;;;;7.53;2.78;;;19.90;99.90;;;;;;5118715;28;20397;-80
2023/08/12 00:49:11;;;;;;;9.27;3.47;;;19.90;99.90;;;;;;5120624;28;20044;-79
2023/08/12 00:51:41;;;;;;;7.65;3.20;;;19.90;99.90;;;;;;5115329;28;20535;-80
2023/08/12 00:54:07;;;;;;;9.20;2.80;;;19.80;99.90;;;;;;5110330;28;20134;-81
2023/08/12 00:56:35;;;;;;;8.88;3.28;;;19.90;99.90;;;;;;5117297;28;20035;-80
2023/08/12 00:59:04;;;;;;;6.35;3.00;;;19.90;99.90;;;;;;5117873;28;20457;-80
2023/08/12 01:01:30;;;;;;;7.97;2.67;;;19.80;99.90;;;;;;5118191;28;20087;-79
2023/08/12 01:03:57;;;;;;;7.18;2.92;;;19.80;99.90;;;;;;5098067;28;20036;-79
2023/08/12 01:06:23;;;;;;;6.38;2.80;;;19.80;99.90;;;;;;5116413;28;20413;-78
2023/08/12 01:08:50;;;;;;;5.95;2.60;;;19.80;99.90;;;;;;5109852;28;20043;-79
2023/08/12 01:11:32;;;;;;;12.73;2.53;;;19.70;99.90;;;;;;5115029;28;20049;-80
2023/08/12 01:14:25;;;;;;;5.53;2.65;;;19.70;99.90;;;;;;5126920;28;20054;-78
2023/08/12 01:16:56;;;;;;;7.93;2.75;;;19.70;99.90;;;;;;5125180;28;20069;-79
2023/08/12 01:19:36;;;;;;;6.50;2.85;;;19.70;99.90;;;;;;5125375;28;20043;-79
2023/08/12 01:22:03;;;;;;;5.57;2.83;;;19.70;99.90;;;;;;5118415;28;20043;-79
2023/08/12 01:24:39;;;;;;;5.85;3.05;;;19.70;99.90;;;;;;5118501;28;20054;-80
2023/08/12 01:27:06;;;;;;;9.27;2.88;;;19.70;99.90;;;;;;5103684;28;20082;-79
2023/08/12 01:29:34;;;;;;;10.00;2.90;;;19.60;99.90;;;;;;5119292;28;20397;-78
2023/08/12 01:32:12;;;;;;;;;;;19.60;99.90;;;;;;5119991;28;20469;-79
2023/08/12 01:34:53;;;;;;;9.65;3.55;;;19.60;99.90;;;;;;5116918;28;19919;-79
2023/08/12 01:37:26;;;;;;;5.68;2.90;;;19.50;99.90;;;;;;5101884;28;20082;-79
2023/08/12 01:39:54;;;;;;;6.72;3.33;;;19.50;99.90;;;;;;5117457;28;20504;-79
2023/08/12 01:42:20;;;;;;;6.03;3.28;;;19.50;99.90;;;;;;5108370;28;20067;-79
2023/08/12 01:44:46;;;;;;;5.95;3.08;;;19.50;99.90;;;;;;5100034;28;20040;-78
2023/08/12 01:47:12;;;;;;;8.93;3.05;;;19.50;99.90;;;;;;5098373;28;20054;-80
2023/08/12 01:49:38;;;;;;;7.68;3.83;;;19.50;99.90;;;;;;5117528;28;20397;-79
2023/08/12 01:52:04;;;;;;;8.35;3.78;;;19.40;99.90;;;;;;5116516;28;20111;-79
2023/08/12 01:54:35;;;;;;;8.98;4.00;;;19.40;99.90;;;;;;5109540;28;20044;-79
2023/08/12 01:57:02;;;;;;;8.10;4.03;;;19.40;99.90;;;;;;5099339;28;20043;-80
2023/08/12 01:59:28;;;;;;;9.73;4.37;;;19.40;99.90;;;;;;5099364;28;20044;-79
2023/08/12 02:01:53;;;;;;;7.78;4.18;;;19.40;99.90;;;;;;5098871;28;20405;-78
2023/08/12 02:04:19;;;;;;;7.97;4.00;;;19.30;99.90;;;;;;5117190;28;20043;-79
2023/08/12 02:06:45;;;;;;;9.43;4.30;;;19.30;99.90;;;;;;5109175;28;20070;-79
2023/08/12 02:09:11;;;;;;;7.50;4.03;;;19.30;99.90;;;;;;5115766;28;20039;-79
2023/08/12 02:11:41;;;;;;;7.38;3.63;;;19.10;99.90;;;;;;5118396;28;20152;-80
2023/08/12 02:14:06;;;;;;;10.73;4.47;;;19.30;99.90;;;;;;5112706;28;20055;-78
2023/08/12 02:16:32;;;;;;;11.20;4.47;;;19.20;99.90;;;;;;5114912;28;20406;-78
2023/08/12 02:18:58;;;;;;;9.20;3.90;;;19.20;99.90;;;;;;5109732;28;20119;-79
2023/08/12 02:21:23;;;;;;;9.82;4.65;;;19.20;99.90;;;;;;5100805;28;20044;-79
2023/08/12 02:23:49;;;;;;;10.05;4.68;;;19.20;99.90;;;;;;5112522;28;20067;-79
2023/08/12 02:26:16;;;;;;;10.82;4.95;;;19.20;99.90;;;;;;5105646;28;20043;-79
2023/08/12 02:28:42;;;;;;;6.95;4.15;;;19.20;99.90;;;;;;5102386;28;20043;-79
2023/08/12 02:31:07;;;;;;;11.82;4.85;;;19.10;99.90;;;;;;5105162;28;20440;-78
2023/08/12 02:33:33;;;;;;;9.57;5.18;;;19.10;99.90;;;;;;5096214;28;20040;-79
2023/08/12 02:35:59;;;;;;;10.85;4.75;;;19.10;99.90;;;;;;5100290;28;20044;-78
2023/08/12 02:38:24;;;;;;;13.38;5.20;;;19.10;99.90;;;;;;5114850;28;20056;-79
2023/08/12 02:40:50;;;;;;;10.50;5.25;;;19.10;99.90;;;;;;5120195;28;20039;-79
2023/08/12 02:43:17;;;;;;;7.47;4.65;;;19.10;99.90;;;;;;5120147;28;20050;-79
2023/08/12 02:45:43;;;;;;;10.52;5.22;;;19.00;99.90;;;;;;5102114;28;20083;-78
2023/08/12 02:48:12;;;;;;;9.40;4.40;;;19.00;99.90;;;;;;5118440;28;20509;-78
2023/08/12 02:50:38;;;;;;;7.53;4.50;;;19.00;99.90;;;;;;5119769;28;20039;-78
2023/08/12 02:53:05;;;;;;;9.68;5.13;;;19.00;99.90;;;;;;5116186;28;20036;-78
2023/08/12 02:55:34;;;;;;;10.63;5.03;;;19.00;99.90;;;;;;5115602;28;20069;-79
2023/08/12 02:58:00;;;;;;;9.18;5.40;;;19.00;99.90;;;;;;5118872;28;20071;-79
2023/08/12 03:00:27;;;;;;;11.50;6.47;;;19.00;99.90;;;;;;5115400;28;20035;-78
2023/08/12 03:02:54;;;;;;;7.07;5.00;;;19.00;99.90;;;;;;5097590;28;20100;-79
2023/08/12 03:05:20;;;;;;;9.73;5.68;;;19.00;99.90;;;;;;5097399;28;20040;-78
2023/08/12 03:07:46;;;;;;;11.60;5.75;;;19.00;99.90;;;;;;5099157;28;20071;-78
2023/08/12 03:10:13;;;;;;;8.00;5.50;;;19.00;99.90;;;;;;5101227;28;20089;-79
2023/08/12 03:12:38;;;;;;;9.13;4.93;;;19.00;99.90;;;;;;5103651;28;20105;-79
2023/08/12 03:15:07;;;;;;;11.10;5.13;;;19.00;99.90;;;;;;5101840;28;20110;-79
2023/08/12 03:17:32;;;;;;;10.73;5.28;;;18.90;99.90;;;;;;5103177;28;20040;-78
2023/08/12 03:20:04;;;;;;;11.30;5.80;;;18.90;99.90;;;;;;5102418;28;20076;-79
2023/08/12 03:22:30;;;;;;;10.63;5.65;;;18.90;99.90;;;;;;5116347;28;20032;-79
2023/08/12 03:24:56;;;;;;;12.45;6.15;;;18.90;99.90;;;;;;5121059;28;20095;-78
2023/08/12 03:27:22;;;;;;;13.38;6.40;;;18.90;99.90;;;;;;5121838;28;20480;-78
2023/08/12 03:29:47;;;;;;;11.57;6.35;;;18.90;99.90;;;;;;5126568;28;20048;-79
2023/08/12 03:32:13;;;;;;;11.80;6.05;;;18.80;99.90;;;;;;5127070;28;20405;-79
2023/08/12 03:34:39;;;;;;;10.55;6.00;;;18.90;99.90;;;;;;5125257;28;20051;-78
2023/08/12 03:37:04;;;;;;;11.88;6.22;;;18.80;99.90;;;;;;5122841;28;20050;-78
2023/08/12 03:39:30;;;;;;;12.15;5.75;;;18.80;99.90;;;;;;5121085;28;20040;-79
2023/08/12 03:41:57;;;;;;;10.35;6.28;;;18.80;99.90;;;;;;5087410;28;20070;-79
2023/08/12 03:44:22;;;;;;;11.32;6.68;;;18.80;99.90;;;;;;5104666;28;20052;-79
2023/08/12 03:46:49;;;;;;;11.30;6.03;;;18.90;99.90;;;;;;5107186;28;20047;-80
2023/08/12 03:49:15;;;;;;;10.95;6.88;;;18.90;99.90;;;;;;5105808;28;20055;-79
2023/08/12 03:51:41;;;;;;;14.27;7.22;;;18.90;99.90;;;;;;5102211;28;20070;-79
2023/08/12 03:54:07;;;;;;;11.10;6.97;;;18.90;99.90;;;;;;5088468;28;20047;-79
2023/08/12 03:56:32;;;;;;;9.98;6.63;;;19.00;99.90;;;;;;5105783;28;20078;-80
2023/08/12 03:58:58;;;;;;;14.02;7.35;;;18.90;99.90;;;;;;5099125;28;20044;-79
2023/08/12 04:01:24;;;;;;;13.32;7.55;;;18.90;99.90;;;;;;5100651;28;20078;-79
2023/08/12 04:03:51;;;;;;;13.57;7.80;;;18.90;99.90;;;;;;5104301;28;20075;-79
2023/08/12 04:06:16;;;;;;;12.10;6.60;;;18.90;99.90;;;;;;5123799;28;20051;-79
2023/08/12 04:08:42;;;;;;;11.23;6.72;;;18.90;99.90;;;;;;5105507;28;20420;-80
2023/08/12 04:11:08;;;;;;;17.48;8.43;;;19.00;99.90;;;;;;5109846;28;20064;-79
2023/08/12 04:13:33;;;;;;;11.45;6.90;;;19.00;99.90;;;;;;5103657;28;20040;-79
2023/08/12 04:15:59;;;;;;;14.93;7.72;;;19.00;99.90;;;;;;5086750;28;20478;-80
2023/08/12 04:18:26;;;;;;;14.18;7.90;;;19.00;99.90;;;;;;5113983;28;20043;-79
2023/08/12 04:20:54;;;;;;;13.38;7.70;;;19.00;99.90;;;;;;5120359;28;20107;-79
2023/08/12 04:23:19;;;;;;;15.40;8.15;;;19.00;99.90;;;;;;5123450;28;20075;-79
2023/08/12 04:25:49;;;;;;;15.88;8.02;;;19.00;99.90;;;;;;5120331;27;20485;-79
2023/08/12 04:28:15;;;;;;;11.73;8.10;;;19.00;99.90;;;;;;5121736;28;20176;-80
2023/08/12 04:30:46;;;;;;;15.02;7.82;;;19.10;99.90;;;;;;5121864;28;20051;-80
2023/08/12 04:33:14;;;;;;;12.65;7.70;;;19.10;99.90;;;;;;5101941;28;20066;-79
2023/08/12 04:35:42;;;;;;;13.95;8.88;;;19.10;99.90;;;;;;5112241;28;20043;-78
2023/08/12 04:38:08;;;;;;;14.55;8.32;;;19.10;99.90;;;;;;5098947;28;20031;-78
2023/08/12 04:40:34;;;;;;;16.45;8.48;;;19.10;99.90;;;;;;5092109;28;20561;-79
2023/08/12 04:43:00;;;;;;;16.35;8.13;;;19.10;99.90;;;;;;5117493;28;20043;-78
2023/08/12 04:45:26;;;;;;;11.82;7.35;;;19.20;99.90;;;;;;5117695;28;20145;-78
2023/08/12 04:47:52;;;;;;;13.18;8.07;;;19.20;99.90;;;;;;5118753;28;20505;-78
2023/08/12 04:50:18;;;;;;;15.85;7.80;;;19.20;99.90;;;;;;5120570;28;20043;-79
2023/08/12 04:52:44;;;;;;;15.45;8.75;;;19.20;99.90;;;;;;5088421;28;20039;-79
2023/08/12 04:55:12;;;;;;;16.60;8.57;;;19.20;99.90;;;;;;5121316;28;20059;-78
2023/08/12 04:57:38;;;;;;;13.55;8.48;;;19.20;99.90;;;;;;5117109;28;20059;-78
2023/08/12 05:00:09;;;;;;;14.32;7.82;;;19.20;99.90;;;;;;5120881;28;20040;-79
2023/08/12 05:02:35;;;;;;;16.77;8.15;;;19.20;99.90;;;;;;5107638;28;20121;-78
2023/08/12 05:05:01;;;;;;;13.88;7.88;;;19.20;99.90;;;;;;5084333;28;20050;-79
2023/08/12 05:07:27;;;;;;;16.67;8.15;;;19.30;99.90;;;;;;5105439;28;20067;-78
2023/08/12 05:09:52;;;;;;;12.93;7.80;;;19.20;99.90;;;;;;5088615;28;20482;-80
2023/08/12 05:12:18;;;;;;;13.73;7.32;;;19.20;99.90;;;;;;5110785;28;20036;-80
2023/08/12 05:14:44;;;;;;;12.68;7.53;;;19.20;99.90;;;;;;5084271;28;20055;-82
2023/08/12 05:17:10;;;;;;;12.50;7.82;;;19.30;99.90;;;;;;5108427;28;20039;-80
2023/08/12 05:19:35;;;;;;;13.25;7.72;;;19.30;99.90;;;;;;5122220;28;20581;-79
2023/08/12 05:22:01;;;;;;;15.77;8.60;;;19.30;99.90;;;;;;5124463;28;20044;-79
2023/08/12 05:24:27;;;;;;;13.90;7.97;;;19.30;99.90;;;;;;5124697;28;20050;-80
2023/08/12 05:26:52;;;;;;;16.55;8.13;;;19.40;99.90;;;;;;5121654;28;20046;-80
2023/08/12 05:29:18;;;;;;;12.10;8.02;;;19.40;99.90;;;;;;5119588;28;20032;-79
2023/08/12 05:31:44;;;;;;;14.73;7.63;;;19.50;99.90;;;;;;5099917;28;20052;-79
2023/08/12 05:34:12;;;;;;;11.68;7.60;;;19.50;99.90;;;;;;5098917;28;20486;-78
2023/08/12 05:36:38;;;;;;;12.38;7.57;;;19.60;99.90;;;;;;5111232;28;20047;-79
2023/08/12 05:39:04;;;;;;;11.25;7.15;;;19.70;99.90;;;;;;5098835;28;20059;-78
2023/08/12 05:41:29;;;;;;;11.18;7.22;;;19.80;99.90;;;;;;5086513;28;20433;-79
2023/08/12 05:43:55;;;;;;;12.18;6.90;;;19.80;99.90;;;;;;5103875;28;20091;-80
2023/08/12 05:46:21;;;;;;;10.70;6.72;;;19.90;99.90;;;;;;5105078;28;20052;-80
2023/08/12 05:48:47;;;;;;;11.30;7.35;;;19.90;99.90;;;;;;5106083;28;20050;-80
2023/08/12 05:51:12;;;;;;;10.70;7.63;;;20.00;99.90;;;;;;5108075;28;20063;-80
2023/08/12 05:53:38;;;;;;;13.68;8.70;;;20.00;99.90;;;;;;5103999;28;20055;-79
2023/08/12 05:56:04;;;;;;;12.60;7.80;;;20.00;99.90;;;;;;5113277;28;20094;-78
2023/08/12 05:58:30;;;;;;;12.93;7.43;;;20.10;99.90;;;;;;5101712;28;20044;-78
2023/08/12 06:00:56;;;;;;;12.80;7.60;;;20.10;99.90;;;;;;5095169;28;20097;-79
2023/08/12 06:03:21;;;;;;;14.50;7.43;;;20.10;99.90;;;;;;5127908;28;20052;-79
2023/08/12 06:05:47;;;;;;;13.15;7.97;;;20.10;99.90;;;;;;5126709;28;20070;-78
2023/08/12 06:08:13;;;;;;;14.65;7.93;;;20.20;99.90;;;;;;5127660;28;20036;-81
2023/08/12 06:10:39;;;;;;;12.98;8.02;;;20.20;99.90;;;;;;5121962;28;20040;-77
2023/08/12 06:13:06;;;;;;;12.50;8.25;;;20.20;99.90;;;;;;5121750;28;20048;-78
2023/08/12 06:15:36;;;;;;;12.18;8.30;;;20.30;99.90;;;;;;5118886;28;20051;-79
2023/08/12 06:18:02;;;;;;;18.20;7.90;;;20.30;99.90;;;;;;5120405;28;20032;-79
2023/08/12 06:20:28;;;;;;;16.33;8.88;;;20.40;99.90;;;;;;5100958;28;20409;-79
2023/08/12 06:22:54;;;;;;;14.27;8.90;;;20.40;99.90;;;;;;5110453;28;20043;-79
2023/08/12 06:25:20;;;;;;;14.98;9.30;;;20.40;99.90;;;;;;5108807;28;20100;-80
2023/08/12 06:27:47;;;;;;;15.70;8.65;;;20.40;99.90;;;;;;5121053;28;20039;-79
2023/08/12 06:30:13;;;;;;;15.07;7.80;;;20.50;99.90;;;;;;5101310;28;20071;-79
2023/08/12 06:32:40;;;;;;;14.35;9.02;;;20.40;99.90;;;;;;5083256;28;20040;-78
2023/08/12 06:35:06;;;;;;;15.88;8.93;;;20.50;99.90;;;;;;5085630;28;20047;-80
2023/08/12 06:37:32;;;;;;;17.77;8.80;;;20.50;99.90;;;;;;5115585;28;20118;-79
2023/08/12 06:39:58;;;;;;;16.27;8.57;;;20.50;99.90;;;;;;5121125;28;20115;-80
2023/08/12 06:42:24;;;;;;;14.00;8.90;;;20.50;99.90;;;;;;5104970;28;20044;-80
2023/08/12 06:44:59;;;;;;;18.40;9.05;;;20.60;99.90;;;;;;5100927;28;20047;-79
2023/08/12 06:47:27;;;;;;;16.05;8.30;;;20.60;99.90;;;;;;5115739;28;20048;-79
2023/08/12 06:49:53;;;;;;;16.58;8.32;;;20.60;99.90;;;;;;5102071;28;20040;-79
2023/08/12 06:52:18;;;;;;;18.10;9.95;;;20.60;99.90;;;;;;5121687;28;20134;-78
2023/08/12 06:54:44;;;;;;;17.90;8.93;;;20.60;99.90;;;;;;5129374;28;20040;-78
2023/08/12 06:57:11;;;;;;;19.17;9.10;;;20.60;99.90;;;;;;5109431;28;20092;-78
2023/08/12 06:59:45;;;;;;;16.20;8.43;;;20.60;99.90;;;;;;5118866;28;20105;-78
2023/08/12 07:02:11;;;;;;;16.48;8.95;;;20.60;99.90;;;;;;5107549;28;20118;-79
2023/08/12 07:04:37;;;;;;;13.93;8.50;;;20.60;99.90;;;;;;5107193;28;20073;-78
2023/08/12 07:07:02;;;;;;;15.10;9.10;;;20.60;99.90;;;;;;5115895;28;20074;-79
2023/08/12 07:09:28;;;;;;;14.65;9.10;;;20.60;99.90;;;;;;5115599;28;20043;-78
2023/08/12 07:11:54;;;;;;;14.55;8.73;;;20.50;99.90;;;;;;5117040;28;20078;-78
2023/08/12 07:14:19;;;;;;;15.23;9.80;;;20.50;99.90;;;;;;5103199;28;20044;-79
2023/08/12 07:16:45;;;;;;;15.63;9.65;;;20.50;99.90;;;;;;5102155;28;20080;-79
2023/08/12 07:19:11;;;;;;;16.58;8.90;;;20.50;99.90;;;;;;5106039;28;20036;-79
2023/08/12 07:21:37;;;;;;;15.27;9.50;;;20.50;99.90;;;;;;5089203;28;20097;-79
2023/08/12 07:24:03;;;;;;;20.55;10.07;;;20.50;99.90;;;;;;5105042;28;20052;-79
2023/08/12 07:26:28;;;;;;;14.20;9.32;;;20.50;99.90;;;;;;5106457;28;20048;-79
2023/08/12 07:28:54;;;;;;;17.58;10.43;;;20.50;99.90;;;;;;5108670;28;20031;-81
2023/08/12 07:31:20;;;;;;;16.73;10.32;;;20.50;99.90;;;;;;5124219;28;20177;-79
2023/08/12 07:33:45;;;;;;;17.25;9.88;;;20.50;99.90;;;;;;5106106;28;20371;-80
2023/08/12 07:36:11;;;;;;;21.73;10.88;;;20.60;99.90;;;;;;5104338;28;20416;-80
2023/08/12 07:38:37;;;;;;;20.15;10.93;;;20.60;99.90;;;;;;5100348;28;20055;-80
2023/08/12 07:41:02;;;;;;;23.25;12.48;;;20.70;99.90;;;;;;5100807;28;20075;-79
2023/08/12 07:43:28;;;;;;;20.10;12.13;;;20.70;99.90;;;;;;5122265;28;20057;-79
2023/08/12 07:45:54;;;;;;;19.00;11.38;;;20.70;99.90;;;;;;5103955;28;20401;-79
2023/08/12 07:48:21;;;;;;;19.13;10.82;;;20.80;99.90;;;;;;5099144;28;20074;-79
2023/08/12 07:50:50;;;;;;;21.55;12.07;;;20.80;99.90;;;;;;5102937;28;20043;-79
2023/08/12 07:53:15;;;;;;;20.30;11.50;;;20.80;99.90;;;;;;5109760;28;20035;-80
2023/08/12 07:55:43;;;;;;;19.83;11.50;;;20.80;99.90;;;;;;5110594;28;20055;-80
2023/08/12 07:58:08;;;;;;;20.10;11.75;;;20.80;99.90;;;;;;5124413;28;20043;-79
2023/08/12 08:00:34;;;;;;;18.75;11.05;;;20.80;99.90;;;;;;5123329;28;20059;-79
2023/08/12 08:03:00;;;;;;;19.80;11.13;;;20.80;99.90;;;;;;5131027;28;20043;-80
2023/08/12 08:05:25;;;;;;;21.35;11.82;;;20.80;99.90;;;;;;5124850;28;20036;-81
2023/08/12 08:07:51;;;;;;;18.95;11.57;;;20.80;99.90;;;;;;5093025;28;20109;-80
2023/08/12 08:10:17;;;;;;;21.38;11.55;;;20.80;99.90;;;;;;5110776;28;20075;-80
2023/08/12 08:12:42;;;;;;;23.02;12.45;;;20.80;99.90;;;;;;5114726;28;20044;-80
2023/08/12 08:15:09;;;;;;;22.10;11.95;;;20.80;99.90;;;;;;5123791;28;20531;-78
2023/08/12 08:17:34;;;;;;;21.17;12.10;;;20.80;99.90;;;;;;5130078;28;20047;-80
2023/08/12 08:20:00;;;;;;;23.25;12.43;;;20.80;99.90;;;;;;5129309;28;20505;-79
2023/08/12 08:22:26;;;;;;;20.92;12.05;;;20.80;99.90;;;;;;5113559;28;20486;-79
2023/08/12 08:24:51;;;;;;;20.33;12.38;;;20.80;99.90;;;;;;5120785;28;20040;-79
2023/08/12 08:27:17;;;;;;;24.13;12.65;;;20.80;99.90;;;;;;5122634;28;20043;-79
2023/08/12 08:29:43;;;;;;;24.30;13.45;;;20.80;99.90;;;;;;5111686;28;20490;-79
2023/08/12 08:32:08;;;;;;;25.65;13.23;;;20.80;99.90;;;;;;5112681;28;20059;-80
2023/08/12 08:34:34;;;;;;;20.58;12.52;;;20.80;99.90;;;;;;5092611;28;20067;-79
2023/08/12 08:37:00;;;;;;;22.17;13.68;;;20.90;99.90;;;;;;5115652;28;20047;-79
2023/08/12 08:39:26;;;;;;;21.58;12.52;;;20.90;99.90;;;;;;5130512;28;20040;-80
2023/08/12 08:41:54;;;;;;;21.88;13.32;;;20.90;99.90;;;;;;5113624;28;20093;-80
2023/08/12 08:44:23;;;;;;;24.38;13.43;;;21.00;99.90;;;;;;5110533;28;20051;-79
2023/08/12 08:46:51;;;;;;;20.33;12.80;;;20.90;99.90;;;;;;5122881;28;20435;-80
2023/08/12 08:49:18;;;;;;;22.13;13.00;;;20.90;99.90;;;;;;5109817;28;20048;-79
2023/08/12 08:51:46;;;;;;;21.52;14.80;;;20.90;99.90;;;;;;5110451;28;20043;-79
2023/08/12 08:54:12;;;;;;;;;;;20.90;99.90;;;;;;5111971;28;20044;-80
2023/08/12 08:56:41;;;;;;;;;;;20.90;99.90;;;;;;5122898;28;20050;-80
2023/08/12 08:59:06;;;;;;;21.35;13.45;;;20.90;99.90;;;;;;5131699;28;19920;-79
2023/08/12 09:01:32;;;;;;;23.30;14.25;;;20.90;99.90;;;;;;5122311;28;20439;-80
2023/08/12 09:03:58;;;;;;;21.13;13.63;;;20.90;99.90;;;;;;5108766;28;20068;-80
2023/08/12 09:06:25;;;;;;;28.65;15.35;;;20.80;99.90;;;;;;5098609;28;20498;-77
2023/08/12 09:08:52;;;;;;;29.10;15.20;;;20.80;99.90;;;;;;5094387;28;20048;-76
2023/08/12 09:11:18;;;;;;;26.35;14.98;;;20.80;99.90;;;;;;5102166;28;20043;-75
2023/08/12 09:13:45;;;;;;;31.77;15.15;;;20.70;99.90;;;;;;5114099;28;20036;-75
2023/08/12 09:16:11;;;;;;;25.38;15.52;;;20.70;99.90;;;;;;5099429;28;20051;-77
2023/08/12 09:18:37;;;;;;;26.58;15.32;;;20.70;99.90;;;;;;5077125;28;20060;-77
2023/08/12 09:21:04;;;;;;;42.65;18.55;;;20.70;99.90;;;;;;5098511;28;20489;-78
2023/08/12 09:23:40;;;;;;;31.35;18.00;;;20.60;99.90;;;;;;5096004;28;20056;-77
2023/08/12 09:26:20;;;;;;;33.83;18.77;;;20.60;99.90;;;;;;5098446;28;20454;-76
2023/08/12 09:28:47;;;;;;;34.03;19.00;;;20.50;99.90;;;;;;5095404;28;20044;-76
2023/08/12 09:31:27;;;;;;;36.42;19.45;;;20.50;99.90;;;;;;5093503;28;20074;-76
2023/08/12 09:33:58;;;;;;;34.45;20.60;;;20.50;99.90;;;;;;5099097;28;20044;-76
2023/08/12 09:36:24;;;;;;;39.28;21.38;;;20.60;99.90;;;;;;5094618;28;20040;-77
2023/08/12 09:38:49;;;;;;;34.05;20.55;;;20.60;99.90;;;;;;5094523;28;20040;-77
2023/08/12 09:41:15;;;;;;;36.88;21.08;;;20.60;99.90;;;;;;5097894;28;20474;-77
2023/08/12 09:43:45;;;;;;;36.17;21.10;;;20.60;99.90;;;;;;5096058;28;20040;-77
2023/08/12 09:46:12;;;;;;;34.28;20.73;;;20.60;99.90;;;;;;5109946;28;20044;-77
2023/08/12 09:48:38;;;;;;;29.10;19.25;;;20.60;99.90;;;;;;5093920;28;20093;-77
2023/08/12 09:51:04;;;;;;;35.90;20.88;;;20.70;99.90;;;;;;5094577;28;20056;-77
2023/08/12 09:53:30;;;;;;;33.20;20.52;;;20.70;99.90;;;;;;5093771;28;20036;-77
2023/08/12 09:56:03;;;;;;;33.30;20.80;;;20.70;99.90;;;;;;5093913;28;20056;-76
2023/08/12 09:58:30;;;;;;;30.73;20.98;;;20.70;99.90;;;;;;5114885;28;20043;-77
2023/08/12 10:00:57;;;;;;;35.10;20.48;;;20.70;99.90;;;;;;5109088;28;20047;-76
2023/08/12 10:03:24;;;;;;;29.80;19.38;;;20.70;99.90;;;;;;5099625;28;20042;-78
2023/08/12 10:05:50;;;;;;;33.65;20.17;;;20.70;99.90;;;;;;5096375;28;20047;-78
2023/08/12 10:08:17;;;;;;;29.73;20.00;;;20.70;99.90;;;;;;5116948;28;20397;-78
2023/08/12 10:10:43;;;;;;;33.58;19.17;;;20.70;99.90;;;;;;5114525;28;20073;-77
2023/08/12 10:13:11;;;;;;;32.25;19.73;;;20.70;99.90;;;;;;5111515;28;20473;-77
2023/08/12 10:15:37;;;;;;;27.58;19.02;;;20.70;99.90;;;;;;5111647;28;20432;-77
2023/08/12 10:18:05;;;;;;;28.08;18.58;;;20.70;99.90;;;;;;5116750;28;20045;-77
2023/08/12 10:20:32;;;;;;;32.65;20.70;;;20.70;99.90;;;;;;5096309;28;20051;-77
2023/08/12 10:23:00;;;;;;;29.55;18.60;;;20.70;99.90;;;;;;5109471;28;20157;-77
2023/08/12 10:25:32;;;;;;;25.60;16.38;;;20.60;99.90;;;;;;5102345;28;20044;-77
2023/08/12 10:27:57;;;;;;;22.10;16.13;;;20.60;99.90;;;;;;5116822;28;20121;-76
2023/08/12 10:30:23;;;;;;;27.70;17.30;;;20.60;99.90;;;;;;5108378;28;20040;-77
2023/08/12 10:32:49;;;;;;;24.13;17.63;;;20.50;99.90;;;;;;5093594;28;20040;-75
2023/08/12 10:35:15;;;;;;;30.63;18.55;;;20.50;99.90;;;;;;5097196;28;20100;-76
2023/08/12 10:37:41;;;;;;;21.80;14.93;;;20.60;99.90;;;;;;5095707;28;20031;-76
2023/08/12 10:40:21;;;;;;;22.77;14.88;;;20.50;99.90;;;;;;5114514;28;20468;-77
2023/08/12 10:42:48;;;;;;;25.20;14.68;;;20.50;99.90;;;;;;5106124;28;20085;-76
2023/08/12 10:45:16;;;;;;;20.13;12.98;;;20.50;99.90;;;;;;5110775;28;20100;-75
2023/08/12 10:47:44;;;;;;;19.40;13.40;;;20.50;99.90;;;;;;5094673;28;20079;-75
2023/08/12 10:50:17;;;;;;;;;;;20.50;99.90;;;;;;5094048;28;20040;-75
2023/08/12 10:52:45;;;;;;;28.05;14.18;;;20.50;99.90;;;;;;5093902;28;19978;-74
2023/08/12 10:55:21;;;;;;;16.42;11.82;;;20.50;99.90;;;;;;5094362;28;20413;-73
2023/08/12 10:57:48;;;;;;;13.65;8.90;;;20.40;99.90;;;;;;5100136;28;20075;-75
2023/08/12 11:00:15;;;;;;;17.15;8.82;;;20.50;99.90;;;;;;5110827;28;20048;-75
2023/08/12 11:02:45;;;;;;;18.73;7.55;;;20.40;99.90;;;;;;5098746;28;20500;-75
2023/08/12 11:05:12;;;;;;;24.33;9.77;;;20.30;99.90;;;;;;5093407;28;20092;-78
2023/08/12 11:07:43;;;;;;;13.75;7.38;;;20.30;99.90;;;;;;5093338;28;20044;-76
2023/08/12 11:10:22;;;;;;;18.60;7.53;;;20.30;99.90;;;;;;5107330;28;20123;-75
2023/08/12 11:12:56;;;;;;;13.13;6.53;;;20.20;99.90;;;;;;5101437;28;20097;-75
2023/08/12 11:15:41;;;;;;;12.35;6.55;;;20.20;99.90;;;;;;5093713;28;20123;-76
2023/08/12 11:18:14;;;;;;;17.33;6.90;;;20.20;99.90;;;;;;5093336;28;20040;-78
2023/08/12 11:20:40;;;;;;;11.60;6.68;;;20.20;99.90;;;;;;5096025;28;20436;-75
2023/08/12 11:23:07;;;;;;;13.63;5.60;;;20.20;99.90;;;;;;5111066;28;20055;-76
2023/08/12 11:25:34;;;;;;;8.63;5.40;;;20.30;99.90;;;;;;5114818;28;20126;-77
2023/08/12 11:28:00;;;;;;;9.53;4.90;;;20.30;99.90;;;;;;5109938;28;20044;-78
2023/08/12 11:30:27;;;;;;;9.57;5.47;;;20.30;99.90;;;;;;5106733;28;20035;-75
2023/08/12 11:32:56;;;;;;;11.48;5.53;;;20.30;99.90;;;;;;5116182;28;20039;-76
2023/08/12 11:35:23;;;;;;;9.98;6.00;;;20.30;99.90;;;;;;5117904;28;20054;-77
2023/08/12 11:37:52;;;;;;;10.15;6.38;;;20.40;99.90;;;;;;5095827;28;20486;-75
2023/08/12 11:40:19;;;;;;;9.70;5.80;;;20.40;99.90;;;;;;5084993;28;20055;-76
2023/08/12 11:42:47;;;;;;;14.88;6.85;;;20.50;99.90;;;;;;5117078;28;20042;-75
2023/08/12 11:45:17;;;;;;;14.20;6.43;;;20.50;99.90;;;;;;5117862;28;20417;-77
2023/08/12 11:47:44;;;;;;;8.10;4.68;;;20.50;99.90;;;;;;5105730;28;20051;-76
2023/08/12 11:50:14;;;;;;;10.32;5.00;;;20.50;99.90;;;;;;5102606;28;20048;-76
2023/08/12 11:52:40;;;;;;;10.50;4.93;;;20.60;99.90;;;;;;5120133;28;20054;-76
2023/08/12 11:55:09;;;;;;;6.07;3.30;;;20.50;99.90;;;;;;5120054;28;20046;-76
2023/08/12 11:57:35;;;;;;;7.03;3.20;;;20.60;99.90;;;;;;5121884;28;20035;-75
2023/08/12 12:00:05;;;;;;;4.30;2.63;;;20.50;99.90;;;;;;5115633;28;20059;-75
2023/08/12 12:02:30;;;;;;;5.68;2.35;;;20.40;99.90;;;;;;5123065;28;20047;-75
2023/08/12 12:04:56;;;;;;;4.10;2.42;;;20.50;99.90;;;;;;5121142;28;20036;-76
2023/08/12 12:07:24;;;;;;;11.65;3.70;;;20.30;99.90;;;;;;5102957;28;20409;-73
2023/08/12 12:09:50;;;;;;;;;;;20.10;99.90;;;;;;5100144;28;20101;-74
2023/08/12 12:12:17;;;;;;;9.63;3.85;;;19.80;99.90;;;;;;5114735;28;20258;-74
2023/08/12 12:14:42;;;;;;;8.57;3.80;;;19.60;99.90;;;;;;5101334;28;20044;-74
2023/08/12 12:17:10;;;;;;;13.45;4.25;;;19.40;99.90;;;;;;5099526;28;20040;-74
2023/08/12 12:19:36;;;;;;;;;;;19.30;99.90;;;;;;5115502;28;20040;-75
2023/08/12 12:22:05;;;;;;;8.27;3.63;;;19.20;99.90;;;;;;5098576;28;19942;-75
2023/08/12 12:24:31;;;;;;;9.98;3.33;;;19.20;99.90;;;;;;5078780;28;20064;-75
2023/08/12 12:26:57;;;;;;;5.80;3.10;;;19.10;99.90;;;;;;5107632;28;20104;-75
2023/08/12 12:29:23;;;;;;;9.80;3.42;;;19.10;99.90;;;;;;5113554;28;20043;-75
2023/08/12 12:31:49;;;;;;;12.30;4.05;;;19.00;99.90;;;;;;5096084;28;20052;-75
2023/08/12 12:34:14;;;;;;;12.18;4.90;;;19.00;99.90;;;;;;5095793;28;20036;-75
2023/08/12 12:36:40;;;;;;;10.88;4.15;;;19.00;99.90;;;;;;5103287;28;20115;-74